Terminal Aerodrome Forecast
Issued by NWS

Home | Current Version | Previous Version | Text Only | Print | Product List | Glossary On
Versions: 1 2 3 4 5 6 7 8 9 10 11 12 13 14 15 16 17 18 19 20 21 22 23 24 25 26 27 28 29 30 31 32 33 34 35 36
000
FTUS41 KBOX 281731 AAB
TAFFMH
TAF AMD
KFMH 281731Z 2818/2918 03013G24KT 4SM -DZ OVC008
     FM290500 04012G23KT 2SM -DZ BR VCSH OVC008
     FM291200 04016G25KT P6SM -DZ VCSH OVC008
     FM291400 04017G27KT P6SM -DZ BKN008=

USA.gov is the U.S. government's official web portal to all federal, state and local government web resources and services.